sensor_id;sensor_type;location;lat;lon;timestamp;pressure;altitude;pressure_sealevel;temperature;humidity
12219;BME280;6172;42.646;23.344;2023-06-14T00:02:01;94416.44;;;15.00;100.00
12219;BME280;6172;42.646;23.344;2023-06-14T00:04:27;94415.03;;;14.96;100.00
12219;BME280;6172;42.646;23.344;2023-06-14T00:06:55;94414.41;;;14.92;100.00
12219;BME280;6172;42.646;23.344;2023-06-14T00:09:23;94405.59;;;14.97;100.00
12219;BME280;6172;42.646;23.344;2023-06-14T00:11:49;94413.31;;;15.11;100.00
12219;BME280;6172;42.646;23.344;2023-06-14T00:14:16;94402.97;;;14.93;100.00
12219;BME280;6172;42.646;23.344;2023-06-14T00:16:43;94403.78;;;15.03;100.00
12219;BME280;6172;42.646;23.344;2023-06-14T00:19:12;94400.31;;;15.12;100.00
12219;BME280;6172;42.646;23.344;2023-06-14T00:21:39;94397.13;;;15.13;100.00
12219;BME280;6172;42.646;23.344;2023-06-14T00:24:07;94393.75;;;15.09;100.00
12219;BME280;6172;42.646;23.344;2023-06-14T00:26:34;94386.41;;;15.06;100.00
12219;BME280;6172;42.646;23.344;2023-06-14T00:29:01;94385.44;;;14.91;100.00
12219;BME280;6172;42.646;23.344;2023-06-14T00:31:28;94385.50;;;15.00;100.00
12219;BME280;6172;42.646;23.344;2023-06-14T00:33:55;94388.09;;;15.03;100.00
12219;BME280;6172;42.646;23.344;2023-06-14T00:36:24;94385.78;;;15.02;100.00
12219;BME280;6172;42.646;23.344;2023-06-14T00:38:50;94379.22;;;14.99;100.00
12219;BME280;6172;42.646;23.344;2023-06-14T00:41:18;94385.22;;;15.07;100.00
12219;BME280;6172;42.646;23.344;2023-06-14T00:43:44;94388.59;;;15.11;100.00
12219;BME280;6172;42.646;23.344;2023-06-14T00:46:14;94385.50;;;15.00;100.00
12219;BME280;6172;42.646;23.344;2023-06-14T00:48:41;94380.25;;;14.93;100.00
12219;BME280;6172;42.646;23.344;2023-06-14T00:51:08;94384.56;;;15.03;100.00
12219;BME280;6172;42.646;23.344;2023-06-14T00:53:37;94377.63;;;15.11;100.00
12219;BME280;6172;42.646;23.344;2023-06-14T00:56:05;94373.91;;;15.05;100.00
12219;BME280;6172;42.646;23.344;2023-06-14T00:58:32;94374.03;;;15.01;100.00
12219;BME280;6172;42.646;23.344;2023-06-14T01:00:59;94364.72;;;14.99;100.00
12219;BME280;6172;42.646;23.344;2023-06-14T01:03:28;94371.28;;;15.01;100.00
12219;BME280;6172;42.646;23.344;2023-06-14T01:06:00;94368.25;;;14.99;100.00
12219;BME280;6172;42.646;23.344;2023-06-14T01:08:40;94374.25;;;15.07;100.00
12219;BME280;6172;42.646;23.344;2023-06-14T01:11:13;94371.19;;;15.05;100.00
12219;BME280;6172;42.646;23.344;2023-06-14T01:13:44;94367.88;;;15.10;100.00
12219;BME280;6172;42.646;23.344;2023-06-14T01:16:13;94373.66;;;15.12;100.00
12219;BME280;6172;42.646;23.344;2023-06-14T01:18:40;94369.50;;;15.07;100.00
12219;BME280;6172;42.646;23.344;2023-06-14T01:21:20;94375.59;;;15.03;100.00
12219;BME280;6172;42.646;23.344;2023-06-14T01:23:49;94377.66;;;14.89;100.00
12219;BME280;6172;42.646;23.344;2023-06-14T01:26:19;94372.22;;;14.98;100.00
12219;BME280;6172;42.646;23.344;2023-06-14T01:28:46;94375.72;;;14.99;100.00
12219;BME280;6172;42.646;23.344;2023-06-14T01:31:17;94376.50;;;14.99;100.00
12219;BME280;6172;42.646;23.344;2023-06-14T01:33:46;94382.59;;;15.03;100.00
12219;BME280;6172;42.646;23.344;2023-06-14T01:36:13;94380.56;;;14.95;100.00
12219;BME280;6172;42.646;23.344;2023-06-14T01:38:42;94378.03;;;14.79;100.00
12219;BME280;6172;42.646;23.344;2023-06-14T01:41:11;94378.84;;;14.67;100.00
12219;BME280;6172;42.646;23.344;2023-06-14T01:43:40;94379.34;;;14.53;100.00
12219;BME280;6172;42.646;23.344;2023-06-14T01:46:08;94384.69;;;14.35;100.00
12219;BME280;6172;42.646;23.344;2023-06-14T01:48:36;94381.19;;;14.34;100.00
12219;BME280;6172;42.646;23.344;2023-06-14T01:51:03;94386.94;;;14.49;100.00
12219;BME280;6172;42.646;23.344;2023-06-14T01:53:30;94382.28;;;14.58;100.00
12219;BME280;6172;42.646;23.344;2023-06-14T01:55:57;94385.41;;;14.69;100.00
12219;BME280;6172;42.646;23.344;2023-06-14T01:58:25;94390.97;;;14.78;100.00
12219;BME280;6172;42.646;23.344;2023-06-14T02:00:52;94400.66;;;14.92;100.00
12219;BME280;6172;42.646;23.344;2023-06-14T02:03:20;94393.66;;;14.91;100.00
12219;BME280;6172;42.646;23.344;2023-06-14T02:05:48;94391.72;;;15.00;100.00
12219;BME280;6172;42.646;23.344;2023-06-14T02:08:15;94387.09;;;14.88;100.00
12219;BME280;6172;42.646;23.344;2023-06-14T02:10:42;94397.56;;;14.81;100.00
12219;BME280;6172;42.646;23.344;2023-06-14T02:13:09;94396.41;;;14.91;100.00
12219;BME280;6172;42.646;23.344;2023-06-14T02:15:37;94398.47;;;14.78;100.00
12219;BME280;6172;42.646;23.344;2023-06-14T02:18:05;94400.88;;;14.76;100.00
12219;BME280;6172;42.646;23.344;2023-06-14T02:20:32;94408.56;;;14.90;100.00
12219;BME280;6172;42.646;23.344;2023-06-14T02:22:59;94411.03;;;14.88;100.00
12219;BME280;6172;42.646;23.344;2023-06-14T02:25:26;94406.09;;;14.83;100.00
12219;BME280;6172;42.646;23.344;2023-06-14T02:27:54;94407.38;;;14.91;100.00
12219;BME280;6172;42.646;23.344;2023-06-14T02:30:21;94409.28;;;14.81;100.00
12219;BME280;6172;42.646;23.344;2023-06-14T02:32:50;94404.13;;;14.83;100.00
12219;BME280;6172;42.646;23.344;2023-06-14T02:35:18;94404.91;;;14.84;100.00
12219;BME280;6172;42.646;23.344;2023-06-14T02:37:46;94407.44;;;14.78;100.00
12219;BME280;6172;42.646;23.344;2023-06-14T02:40:13;94405.34;;;14.82;100.00
12219;BME280;6172;42.646;23.344;2023-06-14T02:42:39;94414.31;;;14.83;100.00
12219;BME280;6172;42.646;23.344;2023-06-14T02:45:08;94408.72;;;14.86;100.00
12219;BME280;6172;42.646;23.344;2023-06-14T02:47:35;94406.59;;;14.90;100.00
12219;BME280;6172;42.646;23.344;2023-06-14T02:50:04;94406.75;;;14.87;100.00
12219;BME280;6172;42.646;23.344;2023-06-14T02:52:30;94409.28;;;14.81;100.00
12219;BME280;6172;42.646;23.344;2023-06-14T02:55:01;94402.94;;;14.72;100.00
12219;BME280;6172;42.646;23.344;2023-06-14T02:57:28;94420.00;;;14.67;100.00
12219;BME280;6172;42.646;23.344;2023-06-14T02:59:54;94405.31;;;14.61;100.00
12219;BME280;6172;42.646;23.344;2023-06-14T03:02:21;94410.34;;;14.62;100.00
12219;BME280;6172;42.646;23.344;2023-06-14T03:04:48;94414.72;;;14.72;100.00
12219;BME280;6172;42.646;23.344;2023-06-14T03:07:17;94412.13;;;14.56;100.00
12219;BME280;6172;42.646;23.344;2023-06-14T03:09:45;94413.81;;;14.54;100.00
12219;BME280;6172;42.646;23.344;2023-06-14T03:12:12;94424.81;;;14.63;100.00
12219;BME280;6172;42.646;23.344;2023-06-14T03:14:40;94420.63;;;14.71;100.00
12219;BME280;6172;42.646;23.344;2023-06-14T03:17:07;94421.09;;;14.57;100.00
12219;BME280;6172;42.646;23.344;2023-06-14T03:19:36;94422.53;;;14.61;100.00
12219;BME280;6172;42.646;23.344;2023-06-14T03:22:03;94425.72;;;14.60;100.00
12219;BME280;6172;42.646;23.344;2023-06-14T03:24:31;94422.41;;;14.65;100.00
12219;BME280;6172;42.646;23.344;2023-06-14T03:27:02;94414.63;;;14.63;100.00
12219;BME280;6172;42.646;23.344;2023-06-14T03:29:29;94417.56;;;14.69;100.00
12219;BME280;6172;42.646;23.344;2023-06-14T03:31:57;94419.41;;;14.72;100.00
12219;BME280;6172;42.646;23.344;2023-06-14T03:34:25;94418.78;;;14.68;100.00
12219;BME280;6172;42.646;23.344;2023-06-14T03:36:52;94416.91;;;14.65;100.00
12219;BME280;6172;42.646;23.344;2023-06-14T03:39:19;94421.38;;;14.71;100.00
12219;BME280;6172;42.646;23.344;2023-06-14T03:41:48;94428.03;;;14.83;100.00
12219;BME280;6172;42.646;23.344;2023-06-14T03:44:16;94431.38;;;14.78;100.00
12219;BME280;6172;42.646;23.344;2023-06-14T03:46:43;94428.19;;;14.79;100.00
12219;BME280;6172;42.646;23.344;2023-06-14T03:49:10;94426.53;;;14.82;100.00
12219;BME280;6172;42.646;23.344;2023-06-14T03:51:37;94432.91;;;14.79;100.00
12219;BME280;6172;42.646;23.344;2023-06-14T03:54:05;94433.69;;;14.79;100.00
12219;BME280;6172;42.646;23.344;2023-06-14T03:56:32;94419.84;;;14.70;100.00
12219;BME280;6172;42.646;23.344;2023-06-14T03:59:03;94422.97;;;14.72;100.00
12219;BME280;6172;42.646;23.344;2023-06-14T04:01:29;94440.56;;;14.84;100.00
12219;BME280;6172;42.646;23.344;2023-06-14T04:03:59;94439.69;;;14.87;100.00
12219;BME280;6172;42.646;23.344;2023-06-14T04:06:26;94442.28;;;14.90;100.00
12219;BME280;6172;42.646;23.344;2023-06-14T04:08:58;94436.22;;;14.95;100.00
12219;BME280;6172;42.646;23.344;2023-06-14T04:11:27;94432.91;;;15.00;100.00
12219;BME280;6172;42.646;23.344;2023-06-14T04:13:56;94439.16;;;15.01;100.00
12219;BME280;6172;42.646;23.344;2023-06-14T04:16:24;94435.38;;;15.07;100.00
12219;BME280;6172;42.646;23.344;2023-06-14T04:18:51;94437.41;;;15.16;100.00
12219;BME280;6172;42.646;23.344;2023-06-14T04:21:18;94426.94;;;15.24;100.00
12219;BME280;6172;42.646;23.344;2023-06-14T04:23:46;94429.13;;;15.38;100.00
12219;BME280;6172;42.646;23.344;2023-06-14T04:26:13;94426.38;;;15.29;100.00
12219;BME280;6172;42.646;23.344;2023-06-14T04:28:41;94432.59;;;15.29;100.00
12219;BME280;6172;42.646;23.344;2023-06-14T04:31:10;94434.53;;;15.20;100.00
12219;BME280;6172;42.646;23.344;2023-06-14T04:33:39;94432.25;;;15.18;100.00
12219;BME280;6172;42.646;23.344;2023-06-14T04:36:09;94425.34;;;15.14;100.00
12219;BME280;6172;42.646;23.344;2023-06-14T04:38:37;94421.31;;;15.27;100.00
12219;BME280;6172;42.646;23.344;2023-06-14T04:41:04;94433.59;;;15.44;100.00
12219;BME280;6172;42.646;23.344;2023-06-14T04:43:31;94423.66;;;15.38;100.00
12219;BME280;6172;42.646;23.344;2023-06-14T04:46:03;94423.53;;;15.41;100.00
12219;BME280;6172;42.646;23.344;2023-06-14T04:48:31;94411.25;;;15.55;100.00
12219;BME280;6172;42.646;23.344;2023-06-14T04:50:59;94415.00;;;15.79;100.00
12219;BME280;6172;42.646;23.344;2023-06-14T04:53:29;94424.03;;;15.88;100.00
12219;BME280;6172;42.646;23.344;2023-06-14T04:55:56;94418.53;;;15.88;100.00
12219;BME280;6172;42.646;23.344;2023-06-14T04:58:23;94421.91;;;15.92;100.00
12219;BME280;6172;42.646;23.344;2023-06-14T05:00:51;94418.09;;;15.90;100.00
12219;BME280;6172;42.646;23.344;2023-06-14T05:03:18;94427.19;;;16.26;100.00
12219;BME280;6172;42.646;23.344;2023-06-14T05:05:46;94425.75;;;16.04;100.00
12219;BME280;6172;42.646;23.344;2023-06-14T05:08:15;94425.63;;;16.07;100.00
12219;BME280;6172;42.646;23.344;2023-06-14T05:10:41;94411.41;;;16.09;100.00
12219;BME280;6172;42.646;23.344;2023-06-14T05:13:08;94414.00;;;16.03;100.00
12219;BME280;6172;42.646;23.344;2023-06-14T05:15:36;94409.91;;;16.17;100.00
12219;BME280;6172;42.646;23.344;2023-06-14T05:18:03;94412.06;;;16.40;100.00
12219;BME280;6172;42.646;23.344;2023-06-14T05:20:29;94417.72;;;16.54;100.00
12219;BME280;6172;42.646;23.344;2023-06-14T05:22:56;94416.81;;;16.57;100.00
12219;BME280;6172;42.646;23.344;2023-06-14T05:25:24;94416.31;;;16.14;100.00
12219;BME280;6172;42.646;23.344;2023-06-14T05:27:53;94434.31;;;16.06;100.00
12219;BME280;6172;42.646;23.344;2023-06-14T05:30:20;94425.75;;;16.04;100.00
12219;BME280;6172;42.646;23.344;2023-06-14T05:32:47;94433.44;;;16.27;100.00
12219;BME280;6172;42.646;23.344;2023-06-14T05:35:15;94436.00;;;16.12;100.00
12219;BME280;6172;42.646;23.344;2023-06-14T05:37:42;94436.38;;;16.59;100.00
12219;BME280;6172;42.646;23.344;2023-06-14T05:40:10;94429.78;;;16.57;100.00
12219;BME280;6172;42.646;23.344;2023-06-14T05:42:39;94434.09;;;16.58;100.00
12219;BME280;6172;42.646;23.344;2023-06-14T05:45:08;94429.03;;;16.65;100.00
12219;BME280;6172;42.646;23.344;2023-06-14T05:47:35;94435.50;;;16.71;100.00
12219;BME280;6172;42.646;23.344;2023-06-14T05:50:02;94435.00;;;17.18;100.00
12219;BME280;6172;42.646;23.344;2023-06-14T05:52:29;94427.69;;;17.66;100.00
12219;BME280;6172;42.646;23.344;2023-06-14T05:54:57;94427.06;;;17.71;100.00
12219;BME280;6172;42.646;23.344;2023-06-14T05:57:23;94423.03;;;17.81;100.00
12219;BME280;6172;42.646;23.344;2023-06-14T05:59:52;94425.31;;;18.38;100.00
12219;BME280;6172;42.646;23.344;2023-06-14T06:02:19;94411.50;;;18.47;100.00
12219;BME280;6172;42.646;23.344;2023-06-14T06:04:46;94414.47;;;18.58;100.00
12219;BME280;6172;42.646;23.344;2023-06-14T06:07:13;94419.63;;;18.65;100.00
12219;BME280;6172;42.646;23.344;2023-06-14T06:09:40;94422.19;;;18.54;100.00
12219;BME280;6172;42.646;23.344;2023-06-14T06:12:07;94414.22;;;18.24;100.00
12219;BME280;6172;42.646;23.344;2023-06-14T06:14:34;94422.03;;;18.02;100.00
12219;BME280;6172;42.646;23.344;2023-06-14T06:17:02;94424.28;;;17.80;100.00
12219;BME280;6172;42.646;23.344;2023-06-14T06:19:30;94436.38;;;18.15;100.00
12219;BME280;6172;42.646;23.344;2023-06-14T06:21:57;94423.59;;;17.94;100.00
12219;BME280;6172;42.646;23.344;2023-06-14T06:24:24;94426.06;;;17.50;100.00
12219;BME280;6172;42.646;23.344;2023-06-14T06:26:51;94438.91;;;17.44;100.00
12219;BME280;6172;42.646;23.344;2023-06-14T06:29:18;94439.38;;;17.43;100.00
12219;BME280;6172;42.646;23.344;2023-06-14T06:31:45;94450.09;;;17.31;100.00
12219;BME280;6172;42.646;23.344;2023-06-14T06:34:14;94449.50;;;17.27;100.00
12219;BME280;6172;42.646;23.344;2023-06-14T06:36:41;94458.88;;;17.03;100.00
12219;BME280;6172;42.646;23.344;2023-06-14T06:39:08;94460.56;;;17.09;100.00
12219;BME280;6172;42.646;23.344;2023-06-14T06:41:37;94458.59;;;16.92;100.00
12219;BME280;6172;42.646;23.344;2023-06-14T06:44:05;94465.16;;;16.94;100.00
12219;BME280;6172;42.646;23.344;2023-06-14T06:46:32;94464.84;;;16.83;100.00
12219;BME280;6172;42.646;23.344;2023-06-14T06:49:00;94463.34;;;16.82;100.00
12219;BME280;6172;42.646;23.344;2023-06-14T06:51:28;94470.19;;;16.96;100.00
12219;BME280;6172;42.646;23.344;2023-06-14T06:53:55;94466.22;;;16.88;100.00
12219;BME280;6172;42.646;23.344;2023-06-14T06:56:22;94468.22;;;16.96;100.00
12219;BME280;6172;42.646;23.344;2023-06-14T06:58:49;94464.53;;;16.90;100.00
12219;BME280;6172;42.646;23.344;2023-06-14T07:01:17;94470.31;;;16.65;100.00
12219;BME280;6172;42.646;23.344;2023-06-14T07:03:44;94456.56;;;16.56;100.00
12219;BME280;6172;42.646;23.344;2023-06-14T07:06:11;94468.38;;;16.75;100.00
12219;BME280;6172;42.646;23.344;2023-06-14T07:08:39;94461.75;;;17.08;100.00
12219;BME280;6172;42.646;23.344;2023-06-14T07:11:06;94455.78;;;17.37;100.00
12219;BME280;6172;42.646;23.344;2023-06-14T07:13:33;94452.78;;;17.68;100.00
12219;BME280;6172;42.646;23.344;2023-06-14T07:16:00;94443.94;;;18.52;100.00
12219;BME280;6172;42.646;23.344;2023-06-14T07:18:27;94424.41;;;19.90;100.00
12219;BME280;6172;42.646;23.344;2023-06-14T07:20:55;94419.75;;;21.93;100.00
12219;BME280;6172;42.646;23.344;2023-06-14T07:23:22;94412.41;;;23.44;100.00
12219;BME280;6172;42.646;23.344;2023-06-14T07:25:50;94412.66;;;23.57;100.00
12219;BME280;6172;42.646;23.344;2023-06-14T07:28:17;94405.13;;;24.02;100.00
12219;BME280;6172;42.646;23.344;2023-06-14T07:30:45;94395.91;;;25.24;93.72
12219;BME280;6172;42.646;23.344;2023-06-14T07:33:12;94395.75;;;24.27;99.06
12219;BME280;6172;42.646;23.344;2023-06-14T07:35:38;94405.50;;;24.66;97.56
12219;BME280;6172;42.646;23.344;2023-06-14T07:38:05;94397.56;;;25.84;79.52
12219;BME280;6172;42.646;23.344;2023-06-14T07:40:32;94403.34;;;23.82;100.00
12219;BME280;6172;42.646;23.344;2023-06-14T07:43:00;94391.50;;;24.88;92.87
12219;BME280;6172;42.646;23.344;2023-06-14T07:45:28;94396.41;;;25.69;86.03
12219;BME280;6172;42.646;23.344;2023-06-14T07:47:54;94386.56;;;26.94;71.95
12219;BME280;6172;42.646;23.344;2023-06-14T07:50:21;94388.75;;;25.34;88.88
12219;BME280;6172;42.646;23.344;2023-06-14T07:52:48;94404.69;;;26.15;80.10
12219;BME280;6172;42.646;23.344;2023-06-14T07:55:15;94408.44;;;27.69;63.95
12219;BME280;6172;42.646;23.344;2023-06-14T07:57:42;94403.28;;;26.99;69.41
12219;BME280;6172;42.646;23.344;2023-06-14T08:00:13;94415.16;;;23.33;91.73
12219;BME280;6172;42.646;23.344;2023-06-14T08:02:41;94404.91;;;25.01;87.67
12219;BME280;6172;42.646;23.344;2023-06-14T08:05:09;94406.16;;;25.05;85.44
12219;BME280;6172;42.646;23.344;2023-06-14T08:07:36;94411.53;;;24.87;86.69
12219;BME280;6172;42.646;23.344;2023-06-14T08:10:03;94425.22;;;23.19;100.00
12219;BME280;6172;42.646;23.344;2023-06-14T08:12:30;94418.78;;;24.16;96.82
12219;BME280;6172;42.646;23.344;2023-06-14T08:14:57;94426.66;;;25.13;86.96
12219;BME280;6172;42.646;23.344;2023-06-14T08:17:26;94421.28;;;26.32;74.30
12219;BME280;6172;42.646;23.344;2023-06-14T08:19:53;94416.19;;;26.60;70.36
12219;BME280;6172;42.646;23.344;2023-06-14T08:22:22;94426.97;;;27.17;68.99
12219;BME280;6172;42.646;23.344;2023-06-14T08:24:51;94421.31;;;25.96;78.73
12219;BME280;6172;42.646;23.344;2023-06-14T08:27:19;94433.69;;;25.25;85.78
12219;BME280;6172;42.646;23.344;2023-06-14T08:29:46;94425.09;;;24.22;95.26
12219;BME280;6172;42.646;23.344;2023-06-14T08:32:13;94437.78;;;24.01;100.00
12219;BME280;6172;42.646;23.344;2023-06-14T08:34:43;94434.09;;;23.18;100.00
12219;BME280;6172;42.646;23.344;2023-06-14T08:37:09;94434.25;;;22.98;100.00
12219;BME280;6172;42.646;23.344;2023-06-14T08:39:36;94433.13;;;23.37;100.00
12219;BME280;6172;42.646;23.344;2023-06-14T08:42:05;94436.09;;;23.12;100.00
12219;BME280;6172;42.646;23.344;2023-06-14T08:44:33;94418.59;;;22.42;100.00
12219;BME280;6172;42.646;23.344;2023-06-14T08:47:00;94430.44;;;22.06;100.00
12219;BME280;6172;42.646;23.344;2023-06-14T08:49:29;94427.63;;;22.37;100.00
12219;BME280;6172;42.646;23.344;2023-06-14T08:52:00;94423.91;;;22.09;100.00
12219;BME280;6172;42.646;23.344;2023-06-14T08:54:28;94416.63;;;22.17;100.00
12219;BME280;6172;42.646;23.344;2023-06-14T08:56:56;94422.72;;;21.84;100.00
12219;BME280;6172;42.646;23.344;2023-06-14T08:59:24;94419.66;;;21.82;100.00
12219;BME280;6172;42.646;23.344;2023-06-14T09:01:52;94428.03;;;21.56;100.00
12219;BME280;6172;42.646;23.344;2023-06-14T09:04:19;94425.41;;;21.22;100.00
12219;BME280;6172;42.646;23.344;2023-06-14T09:06:47;94423.38;;;21.22;100.00
12219;BME280;6172;42.646;23.344;2023-06-14T09:09:20;94422.72;;;21.33;100.00
12219;BME280;6172;42.646;23.344;2023-06-14T09:11:48;94419.50;;;21.40;100.00
12219;BME280;6172;42.646;23.344;2023-06-14T09:14:17;94415.38;;;21.81;100.00
12219;BME280;6172;42.646;23.344;2023-06-14T09:16:44;94410.63;;;22.66;100.00
12219;BME280;6172;42.646;23.344;2023-06-14T09:19:14;94417.84;;;22.10;100.00
12219;BME280;6172;42.646;23.344;2023-06-14T09:21:47;94420.06;;;22.32;100.00
12219;BME280;6172;42.646;23.344;2023-06-14T09:24:14;94409.00;;;22.43;100.00
12219;BME280;6172;42.646;23.344;2023-06-14T09:26:46;94412.34;;;22.16;100.00
12219;BME280;6172;42.646;23.344;2023-06-14T09:29:13;94420.69;;;21.53;100.00
12219;BME280;6172;42.646;23.344;2023-06-14T09:31:45;94411.50;;;22.41;100.00
12219;BME280;6172;42.646;23.344;2023-06-14T09:34:12;94406.38;;;23.51;100.00
12219;BME280;6172;42.646;23.344;2023-06-14T09:36:40;94403.59;;;23.56;100.00
12219;BME280;6172;42.646;23.344;2023-06-14T09:39:08;94400.78;;;23.51;99.74
12219;BME280;6172;42.646;23.344;2023-06-14T09:41:37;94403.31;;;23.60;98.67
12219;BME280;6172;42.646;23.344;2023-06-14T09:44:07;94407.91;;;22.88;100.00
12219;BME280;6172;42.646;23.344;2023-06-14T09:46:35;94395.19;;;23.23;100.00
12219;BME280;6172;42.646;23.344;2023-06-14T09:49:04;94400.81;;;24.06;97.15
12219;BME280;6172;42.646;23.344;2023-06-14T09:51:31;94388.78;;;24.72;89.75
12219;BME280;6172;42.646;23.344;2023-06-14T09:53:59;94392.53;;;24.85;89.98
12219;BME280;6172;42.646;23.344;2023-06-14T09:56:28;94395.50;;;24.03;94.11
12219;BME280;6172;42.646;23.344;2023-06-14T09:58:57;94394.47;;;24.28;93.01
12219;BME280;6172;42.646;23.344;2023-06-14T10:01:27;94389.16;;;24.13;94.43
12219;BME280;6172;42.646;23.344;2023-06-14T10:04:01;94379.25;;;24.40;91.68
12219;BME280;6172;42.646;23.344;2023-06-14T10:06:29;94382.84;;;23.41;96.24
12219;BME280;6172;42.646;23.344;2023-06-14T10:08:58;94377.03;;;24.05;97.49
12219;BME280;6172;42.646;23.344;2023-06-14T10:11:26;94370.00;;;25.70;80.02
12219;BME280;6172;42.646;23.344;2023-06-14T10:13:54;94361.56;;;26.83;69.16
12219;BME280;6172;42.646;23.344;2023-06-14T10:16:27;94363.75;;;27.08;67.08
12219;BME280;6172;42.646;23.344;2023-06-14T10:19:04;94357.03;;;25.72;68.47
12219;BME280;6172;42.646;23.344;2023-06-14T10:21:40;94352.66;;;25.47;74.23
12219;BME280;6172;42.646;23.344;2023-06-14T10:24:12;94348.84;;;26.82;67.30
12219;BME280;6172;42.646;23.344;2023-06-14T10:26:51;94354.13;;;26.43;64.26
12219;BME280;6172;42.646;23.344;2023-06-14T10:29:18;94359.91;;;25.61;70.71
12219;BME280;6172;42.646;23.344;2023-06-14T10:31:48;94355.19;;;26.82;62.19
12219;BME280;6172;42.646;23.344;2023-06-14T10:34:22;94359.09;;;27.85;55.43
12219;BME280;6172;42.646;23.344;2023-06-14T10:37:05;94357.91;;;26.88;60.17
12219;BME280;6172;42.646;23.344;2023-06-14T10:39:39;94350.22;;;25.97;64.65
12219;BME280;6172;42.646;23.344;2023-06-14T10:42:07;94349.56;;;26.16;63.94
12219;BME280;6172;42.646;23.344;2023-06-14T10:44:39;94341.31;;;26.53;64.28
12219;BME280;6172;42.646;23.344;2023-06-14T10:47:10;94348.13;;;26.33;66.04
12219;BME280;6172;42.646;23.344;2023-06-14T10:50:05;94339.69;;;25.85;68.91
12219;BME280;6172;42.646;23.344;2023-06-14T10:52:38;94340.72;;;25.47;71.34
12219;BME280;6172;42.646;23.344;2023-06-14T10:55:07;94336.38;;;25.51;71.02
12219;BME280;6172;42.646;23.344;2023-06-14T10:57:37;94336.13;;;24.63;80.51
12219;BME280;6172;42.646;23.344;2023-06-14T11:00:07;94326.69;;;23.59;90.54
12219;BME280;6172;42.646;23.344;2023-06-14T11:05:49;94335.78;;;23.54;94.49
12219;BME280;6172;42.646;23.344;2023-06-14T11:11:17;94326.44;;;23.46;85.46
12219;BME280;6172;42.646;23.344;2023-06-14T11:13:45;94323.13;;;23.97;82.56
12219;BME280;6172;42.646;23.344;2023-06-14T11:16:13;94322.31;;;24.24;70.80
12219;BME280;6172;42.646;23.344;2023-06-14T11:18:41;94326.13;;;24.27;72.99
12219;BME280;6172;42.646;23.344;2023-06-14T11:21:10;94319.59;;;23.80;74.95
12219;BME280;6172;42.646;23.344;2023-06-14T11:23:38;94319.38;;;23.67;87.37
12219;BME280;6172;42.646;23.344;2023-06-14T11:26:05;94315.03;;;23.99;83.18
12219;BME280;6172;42.646;23.344;2023-06-14T11:28:39;94315.50;;;24.03;82.85
12219;BME280;6172;42.646;23.344;2023-06-14T11:31:06;94314.31;;;23.82;85.27
12219;BME280;6172;42.646;23.344;2023-06-14T11:33:34;94306.47;;;23.69;89.18
12219;BME280;6172;42.646;23.344;2023-06-14T11:36:02;94308.75;;;23.49;92.75
12219;BME280;6172;42.646;23.344;2023-06-14T11:38:35;94317.06;;;23.93;76.58
12219;BME280;6172;42.646;23.344;2023-06-14T11:41:03;94303.63;;;24.08;73.97
12219;BME280;6172;42.646;23.344;2023-06-14T11:43:31;94311.25;;;23.80;80.36
12219;BME280;6172;42.646;23.344;2023-06-14T11:46:00;94298.34;;;23.77;81.65
12219;BME280;6172;42.646;23.344;2023-06-14T11:48:36;94296.84;;;23.37;84.42
12219;BME280;6172;42.646;23.344;2023-06-14T11:51:03;94292.78;;;23.44;86.10
12219;BME280;6172;42.646;23.344;2023-06-14T11:53:31;94284.97;;;23.70;82.94
12219;BME280;6172;42.646;23.344;2023-06-14T11:55:59;94293.31;;;23.64;83.94
12219;BME280;6172;42.646;23.344;2023-06-14T11:58:26;94285.72;;;23.70;86.22
12219;BME280;6172;42.646;23.344;2023-06-14T12:00:53;94281.38;;;24.03;86.78
12219;BME280;6172;42.646;23.344;2023-06-14T12:03:23;94273.84;;;23.70;89.00
12219;BME280;6172;42.646;23.344;2023-06-14T12:05:51;94265.63;;;24.16;81.32
12219;BME280;6172;42.646;23.344;2023-06-14T12:08:34;94270.75;;;23.96;83.24
12219;BME280;6172;42.646;23.344;2023-06-14T12:11:06;94274.59;;;23.76;86.01
12219;BME280;6172;42.646;23.344;2023-06-14T12:13:34;94273.59;;;23.73;90.24
12219;BME280;6172;42.646;23.344;2023-06-14T12:16:04;94270.78;;;23.79;86.54
12219;BME280;6172;42.646;23.344;2023-06-14T12:18:32;94272.56;;;23.49;87.20
12219;BME280;6172;42.646;23.344;2023-06-14T12:20:59;94268.81;;;23.08;91.13
12219;BME280;6172;42.646;23.344;2023-06-14T12:23:42;94264.25;;;23.05;86.56
12219;BME280;6172;42.646;23.344;2023-06-14T12:26:11;94269.31;;;23.12;88.18
12219;BME280;6172;42.646;23.344;2023-06-14T12:28:40;94262.59;;;22.49;95.62
12219;BME280;6172;42.646;23.344;2023-06-14T12:31:06;94254.06;;;22.69;97.67
12219;BME280;6172;42.646;23.344;2023-06-14T12:33:33;94254.84;;;22.75;98.63
12219;BME280;6172;42.646;23.344;2023-06-14T12:36:03;94259.69;;;23.07;95.38
12219;BME280;6172;42.646;23.344;2023-06-14T12:38:30;94255.91;;;23.21;93.89
12219;BME280;6172;42.646;23.344;2023-06-14T12:40:58;94247.06;;;23.23;92.27
12219;BME280;6172;42.646;23.344;2023-06-14T12:43:26;94246.78;;;23.21;91.31
12219;BME280;6172;42.646;23.344;2023-06-14T12:45:53;94242.72;;;22.89;94.27
12219;BME280;6172;42.646;23.344;2023-06-14T12:48:20;94243.47;;;22.78;96.75
12219;BME280;6172;42.646;23.344;2023-06-14T12:50:47;94253.06;;;22.83;99.14
12219;BME280;6172;42.646;23.344;2023-06-14T12:53:14;94233.25;;;22.26;100.00
12219;BME280;6172;42.646;23.344;2023-06-14T12:55:42;94238.84;;;22.37;100.00
12219;BME280;6172;42.646;23.344;2023-06-14T12:58:11;94231.56;;;22.67;100.00
12219;BME280;6172;42.646;23.344;2023-06-14T13:00:39;94235.91;;;22.73;100.00
12219;BME280;6172;42.646;23.344;2023-06-14T13:03:07;94230.56;;;22.75;100.00
12219;BME280;6172;42.646;23.344;2023-06-14T13:05:34;94246.69;;;22.49;100.00